Time;durP1;ratioP1;P1;durP2;ratioP2;P2;SDS_P1;SDS_P2;PMS_P1;PMS_P2;Temp;Humidity;BMP_temperature;BMP_pressure;BME280_temperature;BME280_humidity;BME280_pressure;Samples;Min_cycle;Max_cycle;Signal;HPM_P1;HPM_P2
2024/02/10 00:02:15;;;;;;;10.63;4.68;;;;;;;;;;5024432;28;20042;-75
2024/02/10 00:04:42;;;;;;;8.35;3.70;;;;;;;;;;5030988;28;20136;-73
2024/02/10 00:07:09;;;;;;;9.68;4.03;;;;;;;;;;5040176;28;20057;-72
2024/02/10 00:09:37;;;;;;;10.68;4.90;;;;;;;;;;5030499;28;20049;-73
2024/02/10 00:12:05;;;;;;;7.47;3.88;;;;;;;;;;5031735;28;20053;-74
2024/02/10 00:14:34;;;;;;;7.55;4.05;;;;;;;;;;5031234;28;20057;-73
2024/02/10 00:17:03;;;;;;;11.82;3.88;;;;;;;;;;5029252;28;20077;-73
2024/02/10 00:19:29;;;;;;;9.25;4.60;;;;;;;;;;5035931;28;20094;-73
2024/02/10 00:21:56;;;;;;;6.80;3.60;;;;;;;;;;5031071;28;20171;-73
2024/02/10 00:24:26;;;;;;;7.15;3.78;;;;;;;;;;5036343;28;20433;-72
2024/02/10 00:26:52;;;;;;;8.95;4.22;;;;;;;;;;5031330;28;20405;-73
2024/02/10 00:29:22;;;;;;;7.55;3.35;;;;;;;;;;5032331;28;20045;-72
2024/02/10 00:31:48;;;;;;;11.55;4.15;;;;;;;;;;5037716;28;20047;-72
2024/02/10 00:34:15;;;;;;;10.98;4.22;;;;;;;;;;5037792;28;20049;-71
2024/02/10 00:36:41;;;;;;;7.05;3.75;;;;;;;;;;5034768;28;20053;-73
2024/02/10 00:39:08;;;;;;;5.63;3.08;;;;;;;;;;5033699;28;20049;-72
2024/02/10 00:41:34;;;;;;;10.05;4.20;;;;;;;;;;5045449;28;20071;-72
2024/02/10 00:44:01;;;;;;;9.82;4.15;;;;;;;;;;5043332;28;20053;-73
2024/02/10 00:46:27;;;;;;;9.77;4.45;;;;;;;;;;5042273;28;20124;-70
2024/02/10 00:48:54;;;;;;;6.30;3.15;;;;;;;;;;5038504;28;20052;-73
2024/02/10 00:51:21;;;;;;;10.30;4.10;;;;;;;;;;5037602;28;20041;-72
2024/02/10 00:53:48;;;;;;;10.48;4.38;;;;;;;;;;5039929;28;20041;-71
2024/02/10 00:56:14;;;;;;;13.90;5.88;;;;;;;;;;5043229;28;20049;-74
2024/02/10 00:58:41;;;;;;;9.05;4.15;;;;;;;;;;5037125;28;20488;-72
2024/02/10 01:01:20;;;;;;;9.35;4.20;;;;;;;;;;5034295;28;20405;-72
2024/02/10 01:03:48;;;;;;;9.73;4.07;;;;;;;;;;5037376;28;20095;-73
2024/02/10 01:06:16;;;;;;;7.63;3.97;;;;;;;;;;5042983;28;20056;-73
2024/02/10 01:08:48;;;;;;;6.75;3.78;;;;;;;;;;5043817;28;20508;-72
2024/02/10 01:11:16;;;;;;;9.27;3.72;;;;;;;;;;5042764;28;20067;-74
2024/02/10 01:13:43;;;;;;;8.65;4.07;;;;;;;;;;5044391;28;20048;-73
2024/02/10 01:16:11;;;;;;;8.85;3.80;;;;;;;;;;5032386;28;20065;-73
2024/02/10 01:18:38;;;;;;;6.90;4.38;;;;;;;;;;5043704;28;20198;-73
2024/02/10 01:21:05;;;;;;;9.50;3.75;;;;;;;;;;5030205;28;20049;-73
2024/02/10 01:23:33;;;;;;;9.77;3.78;;;;;;;;;;5038803;28;20099;-71
2024/02/10 01:26:00;;;;;;;7.75;3.47;;;;;;;;;;5037990;28;20095;-73
2024/02/10 01:28:26;;;;;;;6.45;3.40;;;;;;;;;;5039201;28;20045;-74
2024/02/10 01:30:53;;;;;;;10.05;3.80;;;;;;;;;;5034338;28;20054;-73
2024/02/10 01:33:19;;;;;;;5.20;3.47;;;;;;;;;;5042017;28;20049;-73
2024/02/10 01:35:46;;;;;;;7.38;3.67;;;;;;;;;;5040193;28;20845;-73
2024/02/10 01:38:12;;;;;;;8.45;3.40;;;;;;;;;;5035460;28;20053;-73
2024/02/10 01:40:40;;;;;;;7.95;3.45;;;;;;;;;;5042140;28;20052;-74
2024/02/10 01:43:06;;;;;;;8.30;3.20;;;;;;;;;;5045096;28;20052;-73
2024/02/10 01:45:33;;;;;;;6.82;3.30;;;;;;;;;;5043671;28;20060;-73
2024/02/10 01:48:01;;;;;;;7.15;4.07;;;;;;;;;;5043513;28;20127;-72
2024/02/10 01:50:28;;;;;;;5.55;3.10;;;;;;;;;;5037637;28;20053;-73
2024/02/10 01:52:54;;;;;;;7.95;3.53;;;;;;;;;;5039749;28;20049;-72
2024/02/10 01:55:21;;;;;;;5.95;3.38;;;;;;;;;;5035688;28;20049;-73
2024/02/10 01:57:51;;;;;;;6.93;3.40;;;;;;;;;;5029937;28;20069;-73
2024/02/10 02:00:18;;;;;;;6.90;3.40;;;;;;;;;;5036683;28;20053;-73
2024/02/10 02:02:49;;;;;;;5.28;3.08;;;;;;;;;;5036849;28;20581;-73
2024/02/10 02:05:16;;;;;;;9.68;3.30;;;;;;;;;;5033619;28;20136;-73
2024/02/10 02:07:42;;;;;;;8.50;3.63;;;;;;;;;;5037086;28;20510;-73
2024/02/10 02:10:09;;;;;;;5.78;2.90;;;;;;;;;;5040880;28;20067;-73
2024/02/10 02:12:48;;;;;;;4.45;2.47;;;;;;;;;;5036118;28;20059;-73
2024/02/10 02:15:16;;;;;;;5.05;2.92;;;;;;;;;;5034875;28;20121;-73
2024/02/10 02:17:43;;;;;;;7.45;4.32;;;;;;;;;;5039257;28;20052;-73
2024/02/10 02:20:10;;;;;;;9.27;4.47;;;;;;;;;;5026055;28;20057;-73
2024/02/10 02:22:37;;;;;;;9.82;4.07;;;;;;;;;;5041201;28;20049;-73
2024/02/10 02:25:03;;;;;;;7.40;3.97;;;;;;;;;;5036804;28;20045;-73
2024/02/10 02:27:30;;;;;;;5.55;3.30;;;;;;;;;;5035386;28;20041;-73
2024/02/10 02:29:56;;;;;;;8.25;3.30;;;;;;;;;;5043139;28;20092;-73
2024/02/10 02:32:23;;;;;;;7.80;3.20;;;;;;;;;;5030112;28;20053;-73
2024/02/10 02:34:51;;;;;;;6.20;3.17;;;;;;;;;;5030344;28;20464;-73
2024/02/10 02:37:18;;;;;;;8.35;3.67;;;;;;;;;;5028780;28;20052;-72
2024/02/10 02:39:45;;;;;;;6.65;3.35;;;;;;;;;;5033260;28;20049;-72
2024/02/10 02:42:11;;;;;;;5.53;3.80;;;;;;;;;;5030434;28;20481;-73
2024/02/10 02:44:38;;;;;;;7.20;3.28;;;;;;;;;;5037501;28;20076;-73
2024/02/10 02:47:04;;;;;;;4.55;2.88;;;;;;;;;;5041643;28;20081;-73
2024/02/10 02:49:32;;;;;;;5.22;3.30;;;;;;;;;;5033921;28;20595;-74
2024/02/10 02:51:59;;;;;;;5.82;3.25;;;;;;;;;;5031697;28;20057;-73
2024/02/10 02:54:25;;;;;;;6.53;3.17;;;;;;;;;;5035386;28;20053;-73
2024/02/10 02:56:54;;;;;;;3.92;2.60;;;;;;;;;;5033069;28;20548;-73
2024/02/10 02:59:21;;;;;;;7.28;2.88;;;;;;;;;;5034342;28;20140;-73
2024/02/10 03:01:51;;;;;;;4.95;2.70;;;;;;;;;;5027915;28;20052;-73
2024/02/10 03:04:18;;;;;;;7.55;3.05;;;;;;;;;;5034834;28;20102;-73
2024/02/10 03:06:45;;;;;;;7.28;3.35;;;;;;;;;;5034336;28;20144;-73
2024/02/10 03:09:15;;;;;;;5.30;2.90;;;;;;;;;;5034704;28;20503;-73
2024/02/10 03:11:41;;;;;;;5.88;3.05;;;;;;;;;;5031736;28;20045;-71
2024/02/10 03:14:08;;;;;;;6.75;3.30;;;;;;;;;;5031747;28;20106;-73
2024/02/10 03:16:34;;;;;;;7.05;3.50;;;;;;;;;;5037718;28;20053;-73
2024/02/10 03:19:01;;;;;;;11.23;3.58;;;;;;;;;;5032391;28;20544;-73
2024/02/10 03:21:28;;;;;;;7.25;3.20;;;;;;;;;;5034327;28;20179;-73
2024/02/10 03:24:02;;;;;;;7.28;3.17;;;;;;;;;;5034580;28;20059;-74
2024/02/10 03:26:30;;;;;;;6.05;3.17;;;;;;;;;;5031639;28;20458;-73
2024/02/10 03:28:57;;;;;;;5.57;3.30;;;;;;;;;;5040673;28;20057;-73
2024/02/10 03:31:24;;;;;;;6.82;3.35;;;;;;;;;;5030491;28;20057;-73
2024/02/10 03:33:50;;;;;;;7.07;3.50;;;;;;;;;;5030620;28;20663;-74
2024/02/10 03:36:17;;;;;;;4.07;2.72;;;;;;;;;;5022589;28;20056;-74
2024/02/10 03:38:43;;;;;;;5.72;3.10;;;;;;;;;;5026468;28;20073;-74
2024/02/10 03:41:13;;;;;;;5.65;3.00;;;;;;;;;;5027411;28;20128;-74
2024/02/10 03:43:39;;;;;;;6.95;3.22;;;;;;;;;;5024535;28;20049;-75
2024/02/10 03:46:06;;;;;;;6.25;3.10;;;;;;;;;;5023357;28;20064;-75
2024/02/10 03:48:32;;;;;;;5.95;3.30;;;;;;;;;;5021152;28;20114;-74
2024/02/10 03:50:59;;;;;;;5.15;3.05;;;;;;;;;;5028113;28;20057;-74
2024/02/10 03:53:25;;;;;;;6.40;2.92;;;;;;;;;;5033495;28;20045;-75
2024/02/10 03:55:53;;;;;;;6.10;2.88;;;;;;;;;;5027091;28;20037;-74
2024/02/10 03:58:20;;;;;;;6.40;3.35;;;;;;;;;;5034790;28;20572;-74
2024/02/10 04:00:47;;;;;;;7.80;3.30;;;;;;;;;;5029281;28;20049;-74
2024/02/10 04:03:13;;;;;;;5.20;2.60;;;;;;;;;;5028034;28;20064;-74
2024/02/10 04:05:40;;;;;;;7.82;3.25;;;;;;;;;;5024433;28;20475;-75
2024/02/10 04:08:07;;;;;;;5.10;2.83;;;;;;;;;;5027098;28;20132;-74
2024/02/10 04:10:33;;;;;;;6.63;3.40;;;;;;;;;;5026332;28;20127;-74
2024/02/10 04:13:02;;;;;;;4.93;2.75;;;;;;;;;;5021030;28;20057;-75
2024/02/10 04:15:30;;;;;;;6.60;2.90;;;;;;;;;;5037557;28;20045;-75
2024/02/10 04:17:57;;;;;;;4.30;2.80;;;;;;;;;;5021315;28;20367;-74
2024/02/10 04:20:25;;;;;;;6.60;3.53;;;;;;;;;;5029697;28;20056;-75
2024/02/10 04:22:51;;;;;;;4.38;2.67;;;;;;;;;;5027526;28;20054;-75
2024/02/10 04:25:18;;;;;;;5.97;2.80;;;;;;;;;;5028974;28;20512;-74
2024/02/10 04:27:45;;;;;;;5.65;2.63;;;;;;;;;;5029275;28;21151;-75
2024/02/10 04:30:11;;;;;;;6.35;3.33;;;;;;;;;;5024849;28;20045;-74
2024/02/10 04:32:46;;;;;;;6.30;3.20;;;;;;;;;;5030023;28;20462;-74
2024/02/10 04:35:17;;;;;;;5.38;3.10;;;;;;;;;;5025515;28;20593;-74
2024/02/10 04:37:51;;;;;;;7.85;3.50;;;;;;;;;;5034252;28;20072;-74
2024/02/10 04:40:21;;;;;;;5.07;2.65;;;;;;;;;;5035145;28;20140;-74
2024/02/10 04:42:47;;;;;;;5.63;3.63;;;;;;;;;;5025338;28;20053;-74
2024/02/10 04:45:24;;;;;;;5.90;3.03;;;;;;;;;;5034572;28;20077;-75
2024/02/10 04:47:54;;;;;;;6.60;3.35;;;;;;;;;;5036266;28;20036;-74
2024/02/10 04:50:20;;;;;;;6.13;3.10;;;;;;;;;;5038025;28;20135;-75
2024/02/10 04:52:47;;;;;;;5.75;3.42;;;;;;;;;;5027129;28;20103;-74
2024/02/10 04:55:15;;;;;;;4.95;3.28;;;;;;;;;;5033995;28;20568;-75
2024/02/10 04:57:42;;;;;;;;;;;;;;;;;;5028190;28;20053;-72
2024/02/10 05:00:14;;;;;;;7.30;3.17;;;;;;;;;;5020153;28;19983;-74
2024/02/10 05:02:42;;;;;;;6.47;3.10;;;;;;;;;;5028574;28;20091;-74
2024/02/10 05:05:10;;;;;;;5.70;3.30;;;;;;;;;;5027531;28;20057;-73
2024/02/10 05:07:37;;;;;;;;;;;;;;;;;;5030057;28;20045;-74
2024/02/10 05:10:06;;;;;;;5.30;3.50;;;;;;;;;;5030441;28;20023;-75
2024/02/10 05:12:33;;;;;;;7.55;3.53;;;;;;;;;;5022100;28;20111;-75
2024/02/10 05:14:59;;;;;;;7.03;3.85;;;;;;;;;;5028012;28;20058;-75
2024/02/10 05:17:25;;;;;;;6.75;3.90;;;;;;;;;;5037677;28;20460;-76
2024/02/10 05:19:52;;;;;;;7.43;4.05;;;;;;;;;;5031658;28;20055;-75
2024/02/10 05:22:18;;;;;;;5.63;3.90;;;;;;;;;;5033428;28;20061;-75
2024/02/10 05:24:48;;;;;;;7.63;4.60;;;;;;;;;;5026401;28;20128;-75
2024/02/10 05:27:14;;;;;;;6.50;3.58;;;;;;;;;;5036134;28;20045;-74
2024/02/10 05:29:41;;;;;;;7.45;4.00;;;;;;;;;;5023382;28;20041;-74
2024/02/10 05:32:07;;;;;;;5.10;3.55;;;;;;;;;;5029673;28;20138;-73
2024/02/10 05:34:34;;;;;;;9.10;4.90;;;;;;;;;;5034554;28;20053;-75
2024/02/10 05:37:03;;;;;;;5.68;3.72;;;;;;;;;;5032057;28;20057;-74
2024/02/10 05:39:30;;;;;;;8.07;4.25;;;;;;;;;;5028133;28;20634;-75
2024/02/10 05:41:59;;;;;;;6.18;4.03;;;;;;;;;;5019124;28;20339;-75
2024/02/10 05:44:26;;;;;;;8.02;4.35;;;;;;;;;;5037803;28;20073;-74
2024/02/10 05:46:53;;;;;;;6.72;4.30;;;;;;;;;;5022689;28;20049;-74
2024/02/10 05:49:21;;;;;;;7.95;4.40;;;;;;;;;;5041380;28;20053;-75
2024/02/10 05:51:48;;;;;;;8.40;4.55;;;;;;;;;;5030836;28;20060;-75
2024/02/10 05:54:15;;;;;;;7.72;4.85;;;;;;;;;;5029138;28;20045;-75
2024/02/10 05:56:43;;;;;;;10.82;4.82;;;;;;;;;;5029165;28;20049;-75
2024/02/10 05:59:09;;;;;;;6.63;4.22;;;;;;;;;;5028203;28;20436;-75
2024/02/10 06:01:36;;;;;;;7.40;4.40;;;;;;;;;;5031762;28;20041;-75
2024/02/10 06:04:08;;;;;;;10.27;4.90;;;;;;;;;;5027217;28;20449;-75
2024/02/10 06:06:36;;;;;;;7.68;4.53;;;;;;;;;;5029799;28;20154;-76
2024/02/10 06:09:02;;;;;;;6.15;3.80;;;;;;;;;;5024079;28;20057;-75
2024/02/10 06:11:30;;;;;;;7.80;4.30;;;;;;;;;;5018517;28;20107;-75
2024/02/10 06:13:56;;;;;;;11.77;4.20;;;;;;;;;;5030910;28;20081;-76
2024/02/10 06:16:24;;;;;;;8.55;4.13;;;;;;;;;;5034646;28;20658;-75
2024/02/10 06:18:50;;;;;;;5.53;4.18;;;;;;;;;;5029486;28;20424;-75
2024/02/10 06:21:17;;;;;;;5.68;3.80;;;;;;;;;;5031731;28;20490;-75
2024/02/10 06:23:43;;;;;;;6.80;4.72;;;;;;;;;;5025389;28;20052;-75
2024/02/10 06:26:10;;;;;;;10.02;4.80;;;;;;;;;;5025912;28;20049;-75
2024/02/10 06:28:38;;;;;;;9.48;4.20;;;;;;;;;;5030530;28;20041;-75
2024/02/10 06:31:04;;;;;;;7.40;4.75;;;;;;;;;;5032422;28;20058;-75
2024/02/10 06:33:30;;;;;;;8.35;4.82;;;;;;;;;;5023355;28;20672;-76
2024/02/10 06:36:00;;;;;;;7.28;4.43;;;;;;;;;;5036833;28;20057;-75
2024/02/10 06:38:32;;;;;;;9.75;4.72;;;;;;;;;;5026159;28;20084;-75
2024/02/10 06:41:00;;;;;;;7.03;4.72;;;;;;;;;;5035508;28;20148;-76
2024/02/10 06:43:26;;;;;;;7.95;4.72;;;;;;;;;;5029731;28;20528;-76
2024/02/10 06:45:53;;;;;;;10.27;4.80;;;;;;;;;;5031260;28;20137;-75
2024/02/10 06:48:20;;;;;;;6.63;4.07;;;;;;;;;;5031132;28;20091;-76
2024/02/10 06:50:49;;;;;;;6.50;4.43;;;;;;;;;;5022237;28;20156;-75
2024/02/10 06:53:15;;;;;;;;;;;;;;;;;;5028036;28;20124;-75
2024/02/10 06:55:42;;;;;;;7.45;4.25;;;;;;;;;;5036122;28;19920;-75
2024/02/10 06:58:09;;;;;;;7.00;4.28;;;;;;;;;;5035161;28;20045;-76
2024/02/10 07:00:40;;;;;;;7.97;4.18;;;;;;;;;;5028538;28;20080;-75
2024/02/10 07:03:07;;;;;;;7.35;5.07;;;;;;;;;;5023620;28;20045;-73
2024/02/10 07:05:33;;;;;;;8.43;4.30;;;;;;;;;;5041545;28;20124;-73
2024/02/10 07:08:00;;;;;;;8.00;4.32;;;;;;;;;;5035161;28;20048;-74
2024/02/10 07:10:27;;;;;;;9.75;4.60;;;;;;;;;;5045586;28;20440;-73
2024/02/10 07:12:54;;;;;;;7.20;4.55;;;;;;;;;;5038074;28;20136;-73
2024/02/10 07:15:29;;;;;;;9.48;4.07;;;;;;;;;;5027163;28;20053;-72
2024/02/10 07:17:57;;;;;;;8.20;4.72;;;;;;;;;;5035262;28;20363;-73
2024/02/10 07:20:25;;;;;;;12.32;4.55;;;;;;;;;;5032487;28;20444;-73
2024/02/10 07:22:57;;;;;;;8.18;3.75;;;;;;;;;;5042462;28;20056;-73
2024/02/10 07:25:24;;;;;;;9.43;5.10;;;;;;;;;;5044846;28;20108;-73
2024/02/10 07:27:51;;;;;;;8.70;4.22;;;;;;;;;;5037460;28;20052;-74
2024/02/10 07:30:18;;;;;;;10.52;4.85;;;;;;;;;;5030898;28;20050;-74
2024/02/10 07:32:45;;;;;;;8.05;4.60;;;;;;;;;;5043659;28;20611;-74
2024/02/10 07:35:14;;;;;;;7.00;4.20;;;;;;;;;;5042919;28;20045;-73
2024/02/10 07:37:40;;;;;;;7.95;4.35;;;;;;;;;;5045036;28;20512;-73
2024/02/10 07:40:07;;;;;;;8.95;4.75;;;;;;;;;;5040423;28;20053;-73
2024/02/10 07:42:36;;;;;;;6.90;4.22;;;;;;;;;;5046095;28;20138;-73
2024/02/10 07:45:03;;;;;;;8.00;4.68;;;;;;;;;;5031963;28;20060;-73
2024/02/10 07:47:29;;;;;;;7.40;5.13;;;;;;;;;;5048262;28;20141;-74
2024/02/10 07:49:58;;;;;;;9.35;5.28;;;;;;;;;;5030056;28;20785;-73
2024/02/10 07:52:26;;;;;;;6.38;4.53;;;;;;;;;;5038440;28;20115;-73
2024/02/10 07:54:59;;;;;;;13.57;5.10;;;;;;;;;;5036900;28;20057;-74
2024/02/10 07:57:25;;;;;;;6.88;4.55;;;;;;;;;;5032232;28;20502;-74
2024/02/10 07:59:53;;;;;;;6.80;4.75;;;;;;;;;;5038000;28;20065;-74
2024/02/10 08:02:23;;;;;;;9.20;5.40;;;;;;;;;;5028962;28;20045;-74
2024/02/10 08:04:54;;;;;;;7.50;4.50;;;;;;;;;;5042325;28;20055;-74
2024/02/10 08:07:21;;;;;;;9.63;4.32;;;;;;;;;;5037730;28;20060;-73
2024/02/10 08:09:47;;;;;;;8.27;4.88;;;;;;;;;;5048744;28;20502;-73
2024/02/10 08:12:23;;;;;;;8.60;5.13;;;;;;;;;;5037924;28;20049;-74
2024/02/10 08:14:50;;;;;;;6.70;4.10;;;;;;;;;;5033597;28;20053;-75
2024/02/10 08:17:17;;;;;;;6.95;4.47;;;;;;;;;;5030467;28;20052;-75
2024/02/10 08:19:43;;;;;;;6.55;4.50;;;;;;;;;;5031665;28;20751;-75
2024/02/10 08:22:11;;;;;;;6.75;4.75;;;;;;;;;;5045242;28;20037;-75
2024/02/10 08:24:40;;;;;;;7.65;4.43;;;;;;;;;;5029759;28;20049;-75
2024/02/10 08:27:15;;;;;;;6.85;3.92;;;;;;;;;;5026054;28;20103;-76
2024/02/10 08:29:43;;;;;;;8.25;4.30;;;;;;;;;;5029320;28;20041;-75
2024/02/10 08:32:18;;;;;;;7.97;4.28;;;;;;;;;;5025677;28;20155;-75
2024/02/10 08:34:45;;;;;;;7.43;4.57;;;;;;;;;;5025465;28;20070;-75
2024/02/10 08:37:12;;;;;;;5.70;3.90;;;;;;;;;;5029565;28;20521;-75
2024/02/10 08:39:39;;;;;;;9.35;4.30;;;;;;;;;;5038709;28;20470;-76
2024/02/10 08:42:06;;;;;;;6.85;4.03;;;;;;;;;;5035564;28;20111;-76
2024/02/10 08:44:32;;;;;;;7.70;4.53;;;;;;;;;;5030180;28;20124;-75
2024/02/10 08:47:05;;;;;;;5.50;3.85;;;;;;;;;;5038485;28;20130;-75
2024/02/10 08:49:32;;;;;;;6.78;4.05;;;;;;;;;;5040089;28;20086;-75
2024/02/10 08:51:58;;;;;;;7.63;4.03;;;;;;;;;;5036886;28;20084;-75
2024/02/10 08:54:40;;;;;;;5.82;4.00;;;;;;;;;;5054412;28;20044;-75
2024/02/10 08:57:09;;;;;;;8.43;4.32;;;;;;;;;;5032899;28;20928;-75
2024/02/10 08:59:40;;;;;;;6.85;4.95;;;;;;;;;;5026645;28;20079;-75
2024/02/10 09:02:07;;;;;;;8.40;3.75;;;;;;;;;;5022960;28;20500;-75
2024/02/10 09:04:34;;;;;;;6.32;3.95;;;;;;;;;;5048809;28;20057;-75
2024/02/10 09:07:01;;;;;;;5.95;3.25;;;;;;;;;;5029653;28;20079;-75
2024/02/10 09:09:28;;;;;;;7.53;3.67;;;;;;;;;;5035906;28;20067;-75
2024/02/10 09:11:54;;;;;;;8.38;4.30;;;;;;;;;;5025380;28;20075;-75
2024/02/10 09:14:21;;;;;;;4.75;3.30;;;;;;;;;;5038367;28;20053;-75
2024/02/10 09:16:48;;;;;;;5.47;4.03;;;;;;;;;;5035872;28;20896;-76
2024/02/10 09:19:15;;;;;;;9.88;4.05;;;;;;;;;;5044994;28;20045;-75
2024/02/10 09:21:44;;;;;;;6.82;3.92;;;;;;;;;;5046916;28;20152;-75
2024/02/10 09:24:14;;;;;;;8.48;4.28;;;;;;;;;;5036176;28;20486;-76
2024/02/10 09:26:40;;;;;;;8.00;3.72;;;;;;;;;;5030727;28;20056;-76
2024/02/10 09:29:07;;;;;;;6.38;4.00;;;;;;;;;;5030596;28;20048;-76
2024/02/10 09:31:34;;;;;;;7.07;3.83;;;;;;;;;;5039306;28;20037;-76
2024/02/10 09:34:01;;;;;;;6.57;4.47;;;;;;;;;;5047512;28;20136;-75
2024/02/10 09:36:28;;;;;;;4.63;3.15;;;;;;;;;;5024693;28;20041;-75
2024/02/10 09:39:00;;;;;;;7.03;4.57;;;;;;;;;;5036920;28;20083;-75
2024/02/10 09:41:27;;;;;;;7.25;4.40;;;;;;;;;;5034773;28;20054;-76
2024/02/10 09:43:54;;;;;;;6.83;3.97;;;;;;;;;;5037862;28;20053;-75
2024/02/10 09:46:20;;;;;;;9.45;4.65;;;;;;;;;;5039806;28;20048;-76
2024/02/10 09:48:48;;;;;;;6.43;4.50;;;;;;;;;;5035198;28;20060;-75
2024/02/10 09:51:14;;;;;;;7.20;4.13;;;;;;;;;;5042754;28;20139;-75
2024/02/10 09:53:41;;;;;;;6.63;4.38;;;;;;;;;;5025233;28;20131;-76
2024/02/10 09:56:13;;;;;;;6.07;4.15;;;;;;;;;;5039329;28;20045;-76
2024/02/10 09:58:41;;;;;;;7.03;4.60;;;;;;;;;;5039168;28;20134;-75
2024/02/10 10:01:10;;;;;;;7.03;4.32;;;;;;;;;;5031182;28;20092;-75
2024/02/10 10:03:37;;;;;;;6.30;4.50;;;;;;;;;;5043092;28;20396;-75
2024/02/10 10:06:09;;;;;;;6.38;4.20;;;;;;;;;;5020028;28;20079;-75
2024/02/10 10:08:38;;;;;;;7.50;4.55;;;;;;;;;;5034646;28;20655;-75
2024/02/10 10:11:06;;;;;;;6.88;3.97;;;;;;;;;;5036932;28;20072;-75
2024/02/10 10:13:34;;;;;;;6.40;3.60;;;;;;;;;;5045377;28;20625;-75
2024/02/10 10:16:05;;;;;;;6.65;4.53;;;;;;;;;;5043262;28;20468;-75
2024/02/10 10:18:33;;;;;;;6.47;4.20;;;;;;;;;;5033379;28;20041;-75
2024/02/10 10:21:00;;;;;;;6.87;4.67;;;;;;;;;;5048048;28;20045;-75
2024/02/10 10:23:31;;;;;;;8.23;4.00;;;;;;;;;;5028820;28;20044;-75
2024/02/10 10:25:57;;;;;;;5.50;4.13;;;;;;;;;;5041792;28;20065;-75
2024/02/10 10:28:23;;;;;;;6.05;4.05;;;;;;;;;;5036022;28;20131;-75
2024/02/10 10:30:50;;;;;;;4.97;3.65;;;;;;;;;;5036404;28;20647;-75
2024/02/10 10:33:20;;;;;;;5.07;3.38;;;;;;;;;;5043604;28;20688;-73
2024/02/10 10:35:48;;;;;;;5.47;3.47;;;;;;;;;;5037785;28;20049;-73
2024/02/10 10:38:16;;;;;;;6.88;3.75;;;;;;;;;;5044147;28;20076;-73
2024/02/10 10:40:43;;;;;;;6.60;3.40;;;;;;;;;;5039539;28;20414;-74
2024/02/10 10:43:12;;;;;;;8.68;4.15;;;;;;;;;;5046248;28;20388;-73
2024/02/10 10:45:42;;;;;;;4.93;3.60;;;;;;;;;;5042680;28;20060;-72
2024/02/10 10:48:09;;;;;;;5.93;3.30;;;;;;;;;;5058203;28;20111;-72
2024/02/10 10:50:35;;;;;;;6.18;3.58;;;;;;;;;;5043685;28;20056;-73
2024/02/10 10:53:06;;;;;;;5.97;3.60;;;;;;;;;;5039764;28;20877;-73
2024/02/10 10:55:35;;;;;;;5.63;3.38;;;;;;;;;;5036088;28;20469;-73
2024/02/10 10:58:04;;;;;;;5.45;3.22;;;;;;;;;;5037577;28;20052;-73
2024/02/10 11:00:33;;;;;;;4.50;2.85;;;;;;;;;;5042339;28;20485;-73
2024/02/10 11:02:59;;;;;;;5.75;3.33;;;;;;;;;;5031311;28;20045;-73
2024/02/10 11:05:26;;;;;;;4.60;2.97;;;;;;;;;;5044128;28;20051;-73
2024/02/10 11:08:02;;;;;;;7.00;3.47;;;;;;;;;;5046061;28;20052;-73
2024/02/10 11:10:39;;;;;;;7.05;3.67;;;;;;;;;;5050229;28;20050;-75
2024/02/10 11:13:07;;;;;;;4.75;3.38;;;;;;;;;;5045483;28;20389;-73
2024/02/10 11:15:40;;;;;;;6.35;3.30;;;;;;;;;;5031258;28;20496;-73
2024/02/10 11:18:19;;;;;;;5.55;2.88;;;;;;;;;;5038336;28;20059;-73
2024/02/10 11:20:46;;;;;;;6.38;3.70;;;;;;;;;;5049175;28;20423;-73
2024/02/10 11:23:13;;;;;;;5.35;3.85;;;;;;;;;;5044361;28;20045;-74
2024/02/10 11:25:42;;;;;;;5.25;3.58;;;;;;;;;;5043497;28;20061;-73
2024/02/10 11:28:21;;;;;;;5.32;3.25;;;;;;;;;;5034843;28;20057;-73
2024/02/10 11:30:49;;;;;;;5.70;3.50;;;;;;;;;;5030284;28;20054;-73
2024/02/10 11:33:17;;;;;;;8.77;3.70;;;;;;;;;;5038990;28;20060;-74
2024/02/10 11:35:46;;;;;;;5.50;3.10;;;;;;;;;;5038283;28;20069;-73
2024/02/10 11:38:14;;;;;;;7.35;3.28;;;;;;;;;;5038861;28;20103;-73
2024/02/10 11:40:40;;;;;;;6.27;3.23;;;;;;;;;;5036669;28;20085;-73
2024/02/10 11:43:10;;;;;;;4.30;2.92;;;;;;;;;;5036305;28;20497;-73
2024/02/10 11:45:37;;;;;;;4.55;3.22;;;;;;;;;;5041278;28;20473;-74
2024/02/10 11:48:04;;;;;;;5.75;3.13;;;;;;;;;;5036780;28;20114;-74
2024/02/10 11:50:32;;;;;;;6.55;2.83;;;;;;;;;;5039728;28;20049;-73
2024/02/10 11:52:59;;;;;;;4.65;2.92;;;;;;;;;;5041672;28;20059;-73
2024/02/10 11:55:26;;;;;;;5.70;3.58;;;;;;;;;;5043086;28;20049;-74
2024/02/10 11:57:53;;;;;;;6.25;3.97;;;;;;;;;;5028318;28;20045;-75
2024/02/10 12:00:19;;;;;;;6.75;3.97;;;;;;;;;;5037788;28;20045;-74
2024/02/10 12:02:47;;;;;;;5.63;4.28;;;;;;;;;;5028769;28;20754;-74
2024/02/10 12:05:13;;;;;;;5.70;3.70;;;;;;;;;;5032744;28;20653;-74
2024/02/10 12:07:43;;;;;;;7.30;3.88;;;;;;;;;;5036796;28;20091;-74
2024/02/10 12:10:11;;;;;;;5.32;2.75;;;;;;;;;;5037113;28;20056;-75
2024/02/10 12:12:38;;;;;;;;;;;;;;;;;;5044231;28;20370;-75
2024/02/10 12:15:04;;;;;;;7.28;3.78;;;;;;;;;;5047231;28;19960;-73
2024/02/10 12:17:31;;;;;;;5.50;3.67;;;;;;;;;;5045639;28;20045;-74
2024/02/10 12:19:58;;;;;;;10.15;4.70;;;;;;;;;;5040340;28;20049;-74
2024/02/10 12:22:27;;;;;;;5.32;3.95;;;;;;;;;;5031285;28;20046;-75
2024/02/10 12:24:53;;;;;;;4.60;3.40;;;;;;;;;;5031236;28;20601;-72
2024/02/10 12:27:25;;;;;;;6.22;3.92;;;;;;;;;;5039715;28;20484;-72
2024/02/10 12:29:52;;;;;;;4.93;4.10;;;;;;;;;;5044597;28;20554;-73
2024/02/10 12:32:18;;;;;;;6.72;4.43;;;;;;;;;;5035397;28;20057;-73
2024/02/10 12:34:45;;;;;;;6.38;4.28;;;;;;;;;;5048315;28;20041;-72
2024/02/10 12:37:11;;;;;;;6.03;3.72;;;;;;;;;;5047724;28;20053;-75
2024/02/10 12:39:38;;;;;;;8.20;4.85;;;;;;;;;;5038140;28;20056;-75
2024/02/10 12:42:05;;;;;;;7.07;4.10;;;;;;;;;;5036987;28;20080;-73
2024/02/10 12:44:32;;;;;;;5.07;3.87;;;;;;;;;;5045004;28;20060;-73
2024/02/10 12:47:01;;;;;;;6.47;4.53;;;;;;;;;;5053298;28;20469;-74
2024/02/10 12:49:28;;;;;;;6.70;3.85;;;;;;;;;;5043226;28;20060;-74
2024/02/10 12:51:55;;;;;;;6.65;4.40;;;;;;;;;;5035130;28;20059;-74
2024/02/10 12:54:22;;;;;;;8.18;4.40;;;;;;;;;;5048797;28;20734;-75
2024/02/10 12:56:48;;;;;;;7.35;4.22;;;;;;;;;;5039067;28;20053;-75
2024/02/10 12:59:15;;;;;;;6.93;4.70;;;;;;;;;;5043483;28;20118;-76
2024/02/10 13:01:41;;;;;;;7.07;4.30;;;;;;;;;;5039213;28;20099;-76
2024/02/10 13:04:08;;;;;;;7.57;4.07;;;;;;;;;;5040340;28;20872;-75
2024/02/10 13:06:34;;;;;;;9.07;4.20;;;;;;;;;;5036197;28;20054;-73
2024/02/10 13:09:02;;;;;;;8.48;4.30;;;;;;;;;;5036881;28;20412;-74
2024/02/10 13:11:29;;;;;;;5.57;4.03;;;;;;;;;;5040187;28;20155;-74
2024/02/10 13:13:55;;;;;;;7.38;4.50;;;;;;;;;;5039992;28;20045;-76
2024/02/10 13:16:22;;;;;;;6.68;3.78;;;;;;;;;;5046104;28;20056;-74
2024/02/10 13:18:49;;;;;;;8.40;4.63;;;;;;;;;;5048871;28;20669;-75
2024/02/10 13:21:17;;;;;;;5.88;3.90;;;;;;;;;;5024321;28;20480;-75
2024/02/10 13:23:44;;;;;;;5.80;4.00;;;;;;;;;;5040651;28;20052;-76
2024/02/10 13:26:12;;;;;;;6.55;4.03;;;;;;;;;;5040685;28;20048;-75
2024/02/10 13:28:40;;;;;;;7.35;4.93;;;;;;;;;;5042710;28;20416;-75
2024/02/10 13:31:08;;;;;;;5.50;3.97;;;;;;;;;;5039810;28;20051;-73
2024/02/10 13:33:35;;;;;;;7.18;4.25;;;;;;;;;;5043436;28;20490;-75
2024/02/10 13:36:04;;;;;;;9.00;4.80;;;;;;;;;;5035417;28;20163;-76
2024/02/10 14:00:34;;;;;;;5.72;3.60;;;;;;;;;;5033410;28;20049;-73
2024/02/10 14:03:01;;;;;;;5.78;4.05;;;;;;;;;;5036837;28;20053;-73
2024/02/10 14:10:47;;;;;;;6.60;4.03;;;;;;;;;;5040950;28;20148;-73
2024/02/10 14:13:18;;;;;;;7.88;4.30;;;;;;;;;;5048116;28;20036;-76
2024/02/10 14:16:05;;;;;;;12.40;4.95;;;;;;;;;;5042803;28;20044;-75
2024/02/10 14:18:33;;;;;;;6.97;4.22;;;;;;;;;;5033172;28;20041;-75
2024/02/10 14:21:17;;;;;;;8.57;4.88;;;;;;;;;;5041113;28;20083;-75
2024/02/10 14:23:45;;;;;;;7.22;4.10;;;;;;;;;;5034105;28;20065;-74
2024/02/10 14:26:17;;;;;;;12.52;5.28;;;;;;;;;;5038477;28;20060;-74
2024/02/10 14:28:49;;;;;;;7.40;4.28;;;;;;;;;;5035401;28;20106;-75
2024/02/10 14:31:18;;;;;;;7.45;4.45;;;;;;;;;;5031427;28;20638;-75
2024/02/10 14:33:46;;;;;;;9.82;4.43;;;;;;;;;;5040134;28;20052;-74
2024/02/10 14:36:17;;;;;;;;;;;;;;;;;;5031925;28;20130;-74
2024/02/10 14:41:22;;;;;;;9.18;5.55;;;;;;;;;;5050710;28;20053;-74
2024/02/10 14:43:49;;;;;;;9.45;4.93;;;;;;;;;;5035406;28;20080;-75
2024/02/10 14:46:16;;;;;;;8.07;5.20;;;;;;;;;;5045372;28;20052;-74
2024/02/10 14:48:42;;;;;;;6.70;3.75;;;;;;;;;;5029569;28;20136;-74
2024/02/10 14:51:13;;;;;;;8.00;3.92;;;;;;;;;;5042132;28;20060;-74
2024/02/10 14:53:40;;;;;;;7.45;4.70;;;;;;;;;;5033576;28;20058;-74
2024/02/10 14:56:11;;;;;;;7.30;4.30;;;;;;;;;;5041502;28;20103;-74
2024/02/10 14:58:38;;;;;;;6.80;4.15;;;;;;;;;;5039459;28;20049;-73
2024/02/10 15:01:04;;;;;;;7.07;4.05;;;;;;;;;;5027293;28;20060;-74
2024/02/10 15:03:34;;;;;;;9.68;3.63;;;;;;;;;;5037554;28;20044;-75
2024/02/10 15:06:01;;;;;;;10.07;4.32;;;;;;;;;;5035849;28;20053;-76
2024/02/10 15:08:28;;;;;;;7.88;4.40;;;;;;;;;;5042612;28;20413;-76
2024/02/10 15:10:55;;;;;;;10.70;4.38;;;;;;;;;;5044887;28;20060;-76
2024/02/10 15:13:23;;;;;;;10.23;4.88;;;;;;;;;;5036930;28;20049;-75
2024/02/10 15:15:53;;;;;;;8.80;5.68;;;;;;;;;;5040415;28;20128;-74
2024/02/10 15:18:21;;;;;;;10.68;5.82;;;;;;;;;;5035317;28;20147;-73